sensor_id;sensor_type;location;lat;lon;timestamp;P1;durP1;ratioP1;P2;durP2;ratioP2
8466;SDS011;4270;48.148;11.648;2024-01-15T00:01:45;9.00;;;4.60;;
8466;SDS011;4270;48.148;11.648;2024-01-15T00:04:10;10.60;;;4.73;;
8466;SDS011;4270;48.148;11.648;2024-01-15T00:06:35;8.57;;;4.20;;
8466;SDS011;4270;48.148;11.648;2024-01-15T00:09:01;8.73;;;4.20;;
8466;SDS011;4270;48.148;11.648;2024-01-15T00:11:26;12.10;;;5.00;;
8466;SDS011;4270;48.148;11.648;2024-01-15T00:13:51;9.00;;;5.00;;
8466;SDS011;4270;48.148;11.648;2024-01-15T00:16:17;9.67;;;4.77;;
8466;SDS011;4270;48.148;11.648;2024-01-15T00:18:42;7.70;;;5.43;;
8466;SDS011;4270;48.148;11.648;2024-01-15T00:21:07;8.00;;;4.90;;
8466;SDS011;4270;48.148;11.648;2024-01-15T00:23:32;9.23;;;4.80;;
8466;SDS011;4270;48.148;11.648;2024-01-15T00:25:58;9.80;;;4.57;;
8466;SDS011;4270;48.148;11.648;2024-01-15T00:28:23;11.30;;;4.60;;
8466;SDS011;4270;48.148;11.648;2024-01-15T00:30:48;8.80;;;5.07;;
8466;SDS011;4270;48.148;11.648;2024-01-15T00:33:13;12.00;;;5.67;;
8466;SDS011;4270;48.148;11.648;2024-01-15T00:35:39;9.30;;;5.00;;
8466;SDS011;4270;48.148;11.648;2024-01-15T00:38:04;12.80;;;5.43;;
8466;SDS011;4270;48.148;11.648;2024-01-15T00:40:30;12.43;;;5.47;;
8466;SDS011;4270;48.148;11.648;2024-01-15T00:42:55;8.50;;;4.97;;
8466;SDS011;4270;48.148;11.648;2024-01-15T00:45:20;11.37;;;6.80;;
8466;SDS011;4270;48.148;11.648;2024-01-15T00:47:45;12.10;;;5.23;;
8466;SDS011;4270;48.148;11.648;2024-01-15T00:50:11;12.83;;;5.60;;
8466;SDS011;4270;48.148;11.648;2024-01-15T00:52:36;9.80;;;4.70;;
8466;SDS011;4270;48.148;11.648;2024-01-15T00:55:01;8.90;;;5.30;;
8466;SDS011;4270;48.148;11.648;2024-01-15T00:57:26;8.77;;;5.13;;
8466;SDS011;4270;48.148;11.648;2024-01-15T00:59:52;13.67;;;5.60;;
8466;SDS011;4270;48.148;11.648;2024-01-15T01:02:17;9.20;;;5.10;;
8466;SDS011;4270;48.148;11.648;2024-01-15T01:04:42;9.70;;;5.30;;
8466;SDS011;4270;48.148;11.648;2024-01-15T01:07:07;12.83;;;6.77;;
8466;SDS011;4270;48.148;11.648;2024-01-15T01:09:33;17.37;;;7.10;;
8466;SDS011;4270;48.148;11.648;2024-01-15T01:11:58;15.57;;;8.67;;
8466;SDS011;4270;48.148;11.648;2024-01-15T01:14:23;17.50;;;7.87;;
8466;SDS011;4270;48.148;11.648;2024-01-15T01:16:48;13.80;;;7.30;;
8466;SDS011;4270;48.148;11.648;2024-01-15T01:19:14;16.13;;;9.10;;
8466;SDS011;4270;48.148;11.648;2024-01-15T01:21:39;13.33;;;7.17;;
8466;SDS011;4270;48.148;11.648;2024-01-15T01:24:04;18.10;;;6.53;;
8466;SDS011;4270;48.148;11.648;2024-01-15T01:26:30;11.80;;;6.40;;
8466;SDS011;4270;48.148;11.648;2024-01-15T01:28:55;14.63;;;6.73;;
8466;SDS011;4270;48.148;11.648;2024-01-15T01:31:20;13.53;;;6.77;;
8466;SDS011;4270;48.148;11.648;2024-01-15T01:33:46;13.20;;;7.40;;
8466;SDS011;4270;48.148;11.648;2024-01-15T01:36:11;12.73;;;6.43;;
8466;SDS011;4270;48.148;11.648;2024-01-15T01:38:36;13.60;;;7.27;;
8466;SDS011;4270;48.148;11.648;2024-01-15T01:41:02;15.63;;;7.70;;
8466;SDS011;4270;48.148;11.648;2024-01-15T01:43:27;12.00;;;6.40;;
8466;SDS011;4270;48.148;11.648;2024-01-15T01:45:52;13.23;;;6.53;;
8466;SDS011;4270;48.148;11.648;2024-01-15T01:48:20;12.87;;;6.83;;
8466;SDS011;4270;48.148;11.648;2024-01-15T01:50:45;15.63;;;7.27;;
8466;SDS011;4270;48.148;11.648;2024-01-15T01:53:10;10.40;;;6.13;;
8466;SDS011;4270;48.148;11.648;2024-01-15T01:55:35;13.07;;;5.67;;
8466;SDS011;4270;48.148;11.648;2024-01-15T01:58:01;12.50;;;6.23;;
8466;SDS011;4270;48.148;11.648;2024-01-15T02:00:27;10.37;;;6.20;;
8466;SDS011;4270;48.148;11.648;2024-01-15T02:02:52;12.77;;;5.87;;
8466;SDS011;4270;48.148;11.648;2024-01-15T02:05:18;10.37;;;5.37;;
8466;SDS011;4270;48.148;11.648;2024-01-15T02:07:43;10.30;;;5.57;;
8466;SDS011;4270;48.148;11.648;2024-01-15T02:10:09;14.00;;;6.47;;
8466;SDS011;4270;48.148;11.648;2024-01-15T02:12:34;11.57;;;5.83;;
8466;SDS011;4270;48.148;11.648;2024-01-15T02:15:00;12.70;;;6.00;;
8466;SDS011;4270;48.148;11.648;2024-01-15T02:17:26;12.00;;;5.80;;
8466;SDS011;4270;48.148;11.648;2024-01-15T02:19:51;15.87;;;6.27;;
8466;SDS011;4270;48.148;11.648;2024-01-15T02:22:16;10.70;;;5.67;;
8466;SDS011;4270;48.148;11.648;2024-01-15T02:24:41;10.80;;;5.67;;
8466;SDS011;4270;48.148;11.648;2024-01-15T02:27:07;10.67;;;5.60;;
8466;SDS011;4270;48.148;11.648;2024-01-15T02:29:32;13.17;;;6.03;;
8466;SDS011;4270;48.148;11.648;2024-01-15T02:31:58;10.40;;;4.70;;
8466;SDS011;4270;48.148;11.648;2024-01-15T02:34:23;12.53;;;6.40;;
8466;SDS011;4270;48.148;11.648;2024-01-15T02:36:48;12.50;;;6.17;;
8466;SDS011;4270;48.148;11.648;2024-01-15T02:39:13;11.67;;;5.90;;
8466;SDS011;4270;48.148;11.648;2024-01-15T02:41:38;11.20;;;5.80;;
8466;SDS011;4270;48.148;11.648;2024-01-15T02:44:04;12.37;;;6.60;;
8466;SDS011;4270;48.148;11.648;2024-01-15T02:46:29;9.57;;;5.40;;
8466;SDS011;4270;48.148;11.648;2024-01-15T02:48:54;10.03;;;5.67;;
8466;SDS011;4270;48.148;11.648;2024-01-15T02:51:19;12.37;;;5.93;;
8466;SDS011;4270;48.148;11.648;2024-01-15T02:53:45;14.47;;;6.73;;
8466;SDS011;4270;48.148;11.648;2024-01-15T02:56:10;15.60;;;7.03;;
8466;SDS011;4270;48.148;11.648;2024-01-15T02:58:35;11.27;;;5.80;;
8466;SDS011;4270;48.148;11.648;2024-01-15T03:01:00;13.37;;;6.73;;
8466;SDS011;4270;48.148;11.648;2024-01-15T03:03:26;13.33;;;6.37;;
8466;SDS011;4270;48.148;11.648;2024-01-15T03:05:51;16.80;;;7.00;;
8466;SDS011;4270;48.148;11.648;2024-01-15T03:08:16;15.00;;;7.37;;
8466;SDS011;4270;48.148;11.648;2024-01-15T03:10:42;13.67;;;6.67;;
8466;SDS011;4270;48.148;11.648;2024-01-15T03:13:07;10.10;;;5.80;;
8466;SDS011;4270;48.148;11.648;2024-01-15T03:15:32;10.63;;;5.40;;
8466;SDS011;4270;48.148;11.648;2024-01-15T03:17:58;11.90;;;6.23;;
8466;SDS011;4270;48.148;11.648;2024-01-15T03:20:23;14.30;;;6.30;;
8466;SDS011;4270;48.148;11.648;2024-01-15T03:22:48;17.63;;;5.90;;
8466;SDS011;4270;48.148;11.648;2024-01-15T03:25:14;10.37;;;5.87;;
8466;SDS011;4270;48.148;11.648;2024-01-15T03:27:39;15.37;;;6.63;;
8466;SDS011;4270;48.148;11.648;2024-01-15T03:30:04;14.07;;;6.43;;
8466;SDS011;4270;48.148;11.648;2024-01-15T03:32:30;13.37;;;6.13;;
8466;SDS011;4270;48.148;11.648;2024-01-15T03:34:55;14.43;;;6.20;;
8466;SDS011;4270;48.148;11.648;2024-01-15T03:37:20;11.63;;;5.57;;
8466;SDS011;4270;48.148;11.648;2024-01-15T03:39:46;9.73;;;5.73;;
8466;SDS011;4270;48.148;11.648;2024-01-15T03:42:11;12.23;;;6.40;;
8466;SDS011;4270;48.148;11.648;2024-01-15T03:44:36;12.27;;;5.20;;
8466;SDS011;4270;48.148;11.648;2024-01-15T03:47:01;10.70;;;5.53;;
8466;SDS011;4270;48.148;11.648;2024-01-15T03:49:26;12.37;;;5.60;;
8466;SDS011;4270;48.148;11.648;2024-01-15T03:51:52;10.00;;;5.97;;
8466;SDS011;4270;48.148;11.648;2024-01-15T03:54:17;12.40;;;5.70;;
8466;SDS011;4270;48.148;11.648;2024-01-15T03:56:42;10.60;;;5.30;;
8466;SDS011;4270;48.148;11.648;2024-01-15T03:59:08;13.83;;;5.90;;
8466;SDS011;4270;48.148;11.648;2024-01-15T04:01:33;12.73;;;6.40;;
8466;SDS011;4270;48.148;11.648;2024-01-15T04:03:58;12.80;;;5.80;;
8466;SDS011;4270;48.148;11.648;2024-01-15T04:06:23;11.93;;;5.17;;
8466;SDS011;4270;48.148;11.648;2024-01-15T04:08:49;10.47;;;5.83;;
8466;SDS011;4270;48.148;11.648;2024-01-15T04:11:14;12.60;;;6.23;;
8466;SDS011;4270;48.148;11.648;2024-01-15T04:13:39;14.07;;;5.87;;
8466;SDS011;4270;48.148;11.648;2024-01-15T04:16:04;9.60;;;4.90;;
8466;SDS011;4270;48.148;11.648;2024-01-15T04:18:30;11.80;;;5.50;;
8466;SDS011;4270;48.148;11.648;2024-01-15T04:20:55;12.00;;;6.13;;
8466;SDS011;4270;48.148;11.648;2024-01-15T04:23:20;12.93;;;5.77;;
8466;SDS011;4270;48.148;11.648;2024-01-15T04:25:45;14.50;;;6.10;;
8466;SDS011;4270;48.148;11.648;2024-01-15T04:28:11;13.33;;;5.63;;
8466;SDS011;4270;48.148;11.648;2024-01-15T04:30:36;9.20;;;5.03;;
8466;SDS011;4270;48.148;11.648;2024-01-15T04:33:02;9.77;;;5.60;;
8466;SDS011;4270;48.148;11.648;2024-01-15T04:35:27;9.47;;;5.20;;
8466;SDS011;4270;48.148;11.648;2024-01-15T04:37:52;11.33;;;5.63;;
8466;SDS011;4270;48.148;11.648;2024-01-15T04:40:17;9.33;;;4.67;;
8466;SDS011;4270;48.148;11.648;2024-01-15T04:42:43;11.13;;;5.03;;
8466;SDS011;4270;48.148;11.648;2024-01-15T04:45:10;13.63;;;4.63;;
8466;SDS011;4270;48.148;11.648;2024-01-15T04:47:35;9.47;;;4.60;;
8466;SDS011;4270;48.148;11.648;2024-01-15T04:50:02;11.17;;;5.20;;
8466;SDS011;4270;48.148;11.648;2024-01-15T04:52:27;12.33;;;5.60;;
8466;SDS011;4270;48.148;11.648;2024-01-15T04:54:52;9.20;;;5.47;;
8466;SDS011;4270;48.148;11.648;2024-01-15T04:57:17;7.57;;;4.27;;
8466;SDS011;4270;48.148;11.648;2024-01-15T04:59:43;10.57;;;5.17;;
8466;SDS011;4270;48.148;11.648;2024-01-15T05:02:08;9.10;;;5.33;;
8466;SDS011;4270;48.148;11.648;2024-01-15T05:04:33;11.50;;;5.40;;
8466;SDS011;4270;48.148;11.648;2024-01-15T05:06:58;11.03;;;5.10;;
8466;SDS011;4270;48.148;11.648;2024-01-15T05:09:24;10.37;;;5.07;;
8466;SDS011;4270;48.148;11.648;2024-01-15T05:11:49;8.33;;;4.20;;
8466;SDS011;4270;48.148;11.648;2024-01-15T05:14:14;10.03;;;4.73;;
8466;SDS011;4270;48.148;11.648;2024-01-15T05:16:40;8.47;;;5.63;;
8466;SDS011;4270;48.148;11.648;2024-01-15T05:19:06;9.47;;;5.67;;
8466;SDS011;4270;48.148;11.648;2024-01-15T05:21:31;10.73;;;4.67;;
8466;SDS011;4270;48.148;11.648;2024-01-15T05:23:57;9.07;;;5.10;;
8466;SDS011;4270;48.148;11.648;2024-01-15T05:26:22;9.20;;;5.17;;
8466;SDS011;4270;48.148;11.648;2024-01-15T05:28:47;9.17;;;4.27;;
8466;SDS011;4270;48.148;11.648;2024-01-15T05:31:12;8.40;;;5.20;;
8466;SDS011;4270;48.148;11.648;2024-01-15T05:33:38;9.43;;;4.60;;
8466;SDS011;4270;48.148;11.648;2024-01-15T05:36:03;9.57;;;6.00;;
8466;SDS011;4270;48.148;11.648;2024-01-15T05:38:28;14.13;;;5.53;;
8466;SDS011;4270;48.148;11.648;2024-01-15T05:40:53;14.67;;;5.10;;
8466;SDS011;4270;48.148;11.648;2024-01-15T05:43:19;9.10;;;4.67;;
8466;SDS011;4270;48.148;11.648;2024-01-15T05:45:44;8.93;;;4.80;;
8466;SDS011;4270;48.148;11.648;2024-01-15T05:48:10;8.70;;;4.60;;
8466;SDS011;4270;48.148;11.648;2024-01-15T05:50:35;7.33;;;4.47;;
8466;SDS011;4270;48.148;11.648;2024-01-15T05:53:00;8.20;;;4.67;;
8466;SDS011;4270;48.148;11.648;2024-01-15T05:55:26;9.87;;;5.07;;
8466;SDS011;4270;48.148;11.648;2024-01-15T05:57:51;8.80;;;3.63;;
8466;SDS011;4270;48.148;11.648;2024-01-15T06:00:16;10.43;;;4.50;;
8466;SDS011;4270;48.148;11.648;2024-01-15T06:02:41;11.00;;;5.57;;
8466;SDS011;4270;48.148;11.648;2024-01-15T06:05:07;9.30;;;4.63;;
8466;SDS011;4270;48.148;11.648;2024-01-15T06:07:35;7.53;;;4.30;;
8466;SDS011;4270;48.148;11.648;2024-01-15T06:10:01;11.57;;;4.80;;
8466;SDS011;4270;48.148;11.648;2024-01-15T06:12:27;8.90;;;5.00;;
8466;SDS011;4270;48.148;11.648;2024-01-15T06:14:52;8.77;;;6.03;;
8466;SDS011;4270;48.148;11.648;2024-01-15T06:17:18;6.80;;;4.43;;
8466;SDS011;4270;48.148;11.648;2024-01-15T06:19:43;8.60;;;5.00;;
8466;SDS011;4270;48.148;11.648;2024-01-15T06:22:09;8.73;;;3.67;;
8466;SDS011;4270;48.148;11.648;2024-01-15T06:24:34;10.90;;;5.83;;
8466;SDS011;4270;48.148;11.648;2024-01-15T06:26:59;9.97;;;3.40;;
8466;SDS011;4270;48.148;11.648;2024-01-15T06:29:25;9.83;;;3.93;;
8466;SDS011;4270;48.148;11.648;2024-01-15T06:31:50;10.73;;;4.53;;
8466;SDS011;4270;48.148;11.648;2024-01-15T06:34:16;8.20;;;4.50;;
8466;SDS011;4270;48.148;11.648;2024-01-15T06:36:41;11.73;;;5.60;;
8466;SDS011;4270;48.148;11.648;2024-01-15T06:39:06;6.40;;;3.60;;
8466;SDS011;4270;48.148;11.648;2024-01-15T06:41:31;7.67;;;3.70;;
8466;SDS011;4270;48.148;11.648;2024-01-15T06:43:57;9.47;;;4.40;;
8466;SDS011;4270;48.148;11.648;2024-01-15T06:46:22;7.70;;;3.50;;
8466;SDS011;4270;48.148;11.648;2024-01-15T06:48:48;10.57;;;4.53;;
8466;SDS011;4270;48.148;11.648;2024-01-15T06:51:13;8.77;;;4.20;;
8466;SDS011;4270;48.148;11.648;2024-01-15T06:53:38;7.17;;;3.60;;
8466;SDS011;4270;48.148;11.648;2024-01-15T06:56:04;8.33;;;4.83;;
8466;SDS011;4270;48.148;11.648;2024-01-15T06:58:30;12.77;;;4.30;;
8466;SDS011;4270;48.148;11.648;2024-01-15T07:00:56;8.13;;;3.40;;
8466;SDS011;4270;48.148;11.648;2024-01-15T07:03:21;7.70;;;4.00;;
8466;SDS011;4270;48.148;11.648;2024-01-15T07:05:46;8.43;;;4.23;;
8466;SDS011;4270;48.148;11.648;2024-01-15T07:08:11;8.33;;;4.40;;
8466;SDS011;4270;48.148;11.648;2024-01-15T07:10:36;9.43;;;4.20;;
8466;SDS011;4270;48.148;11.648;2024-01-15T07:13:02;7.03;;;4.07;;
8466;SDS011;4270;48.148;11.648;2024-01-15T07:15:27;7.80;;;4.10;;
8466;SDS011;4270;48.148;11.648;2024-01-15T07:17:52;8.20;;;4.20;;
8466;SDS011;4270;48.148;11.648;2024-01-15T07:20:17;6.20;;;3.57;;
8466;SDS011;4270;48.148;11.648;2024-01-15T07:22:44;8.40;;;4.60;;
8466;SDS011;4270;48.148;11.648;2024-01-15T07:25:10;5.67;;;3.90;;
8466;SDS011;4270;48.148;11.648;2024-01-15T07:27:35;9.10;;;4.30;;
8466;SDS011;4270;48.148;11.648;2024-01-15T07:30:00;8.97;;;4.93;;
8466;SDS011;4270;48.148;11.648;2024-01-15T07:32:25;7.93;;;4.53;;
8466;SDS011;4270;48.148;11.648;2024-01-15T07:34:51;9.27;;;4.80;;
8466;SDS011;4270;48.148;11.648;2024-01-15T07:37:16;12.40;;;5.20;;
8466;SDS011;4270;48.148;11.648;2024-01-15T07:39:41;10.20;;;4.30;;
8466;SDS011;4270;48.148;11.648;2024-01-15T07:42:06;9.47;;;5.77;;
8466;SDS011;4270;48.148;11.648;2024-01-15T07:44:32;12.20;;;4.83;;
8466;SDS011;4270;48.148;11.648;2024-01-15T07:46:57;9.37;;;6.00;;
8466;SDS011;4270;48.148;11.648;2024-01-15T07:49:22;7.67;;;5.00;;
8466;SDS011;4270;48.148;11.648;2024-01-15T07:51:48;10.77;;;5.00;;
8466;SDS011;4270;48.148;11.648;2024-01-15T07:54:13;8.57;;;4.43;;
8466;SDS011;4270;48.148;11.648;2024-01-15T07:59:19;9.87;;;6.97;;
8466;SDS011;4270;48.148;11.648;2024-01-15T08:01:44;12.97;;;5.57;;
8466;SDS011;4270;48.148;11.648;2024-01-15T08:04:10;11.60;;;5.37;;
8466;SDS011;4270;48.148;11.648;2024-01-15T08:06:37;15.40;;;6.30;;
8466;SDS011;4270;48.148;11.648;2024-01-15T08:09:03;12.30;;;6.10;;
8466;SDS011;4270;48.148;11.648;2024-01-15T08:11:29;9.60;;;4.97;;
8466;SDS011;4270;48.148;11.648;2024-01-15T08:13:54;12.53;;;6.07;;
8466;SDS011;4270;48.148;11.648;2024-01-15T08:16:20;11.37;;;5.60;;
8466;SDS011;4270;48.148;11.648;2024-01-15T08:18:45;15.27;;;5.80;;
8466;SDS011;4270;48.148;11.648;2024-01-15T08:21:10;10.30;;;5.90;;
8466;SDS011;4270;48.148;11.648;2024-01-15T08:23:35;9.33;;;5.50;;
8466;SDS011;4270;48.148;11.648;2024-01-15T08:26:01;8.43;;;4.33;;
8466;SDS011;4270;48.148;11.648;2024-01-15T08:28:26;12.60;;;4.50;;
8466;SDS011;4270;48.148;11.648;2024-01-15T08:30:51;13.37;;;5.63;;
8466;SDS011;4270;48.148;11.648;2024-01-15T08:33:16;10.23;;;5.13;;
8466;SDS011;4270;48.148;11.648;2024-01-15T08:35:41;9.30;;;4.30;;
8466;SDS011;4270;48.148;11.648;2024-01-15T08:38:07;11.50;;;5.13;;
8466;SDS011;4270;48.148;11.648;2024-01-15T08:40:32;9.10;;;4.37;;
8466;SDS011;4270;48.148;11.648;2024-01-15T08:42:57;9.43;;;4.80;;
8466;SDS011;4270;48.148;11.648;2024-01-15T08:45:22;8.73;;;4.50;;
8466;SDS011;4270;48.148;11.648;2024-01-15T08:47:48;15.63;;;5.97;;
8466;SDS011;4270;48.148;11.648;2024-01-15T08:50:13;11.27;;;6.57;;
8466;SDS011;4270;48.148;11.648;2024-01-15T08:52:38;8.30;;;3.80;;
8466;SDS011;4270;48.148;11.648;2024-01-15T08:55:03;8.23;;;4.70;;
8466;SDS011;4270;48.148;11.648;2024-01-15T08:57:29;13.30;;;4.80;;
8466;SDS011;4270;48.148;11.648;2024-01-15T08:59:54;7.47;;;4.00;;
8466;SDS011;4270;48.148;11.648;2024-01-15T09:02:20;7.50;;;4.30;;
8466;SDS011;4270;48.148;11.648;2024-01-15T09:04:45;8.20;;;4.70;;
8466;SDS011;4270;48.148;11.648;2024-01-15T09:07:11;10.23;;;4.30;;
8466;SDS011;4270;48.148;11.648;2024-01-15T09:09:36;10.73;;;4.53;;
8466;SDS011;4270;48.148;11.648;2024-01-15T09:12:01;11.93;;;4.57;;
8466;SDS011;4270;48.148;11.648;2024-01-15T09:14:27;10.47;;;5.10;;
8466;SDS011;4270;48.148;11.648;2024-01-15T09:16:54;8.13;;;4.00;;
8466;SDS011;4270;48.148;11.648;2024-01-15T09:19:19;10.40;;;4.50;;
8466;SDS011;4270;48.148;11.648;2024-01-15T09:21:44;8.00;;;4.80;;
8466;SDS011;4270;48.148;11.648;2024-01-15T09:24:09;9.27;;;4.70;;
8466;SDS011;4270;48.148;11.648;2024-01-15T09:26:35;9.80;;;5.10;;
8466;SDS011;4270;48.148;11.648;2024-01-15T09:29:00;10.80;;;4.60;;
8466;SDS011;4270;48.148;11.648;2024-01-15T09:31:26;8.80;;;5.30;;
8466;SDS011;4270;48.148;11.648;2024-01-15T09:33:52;11.30;;;5.83;;
8466;SDS011;4270;48.148;11.648;2024-01-15T09:36:21;8.23;;;4.90;;
8466;SDS011;4270;48.148;11.648;2024-01-15T09:38:46;7.57;;;4.50;;
8466;SDS011;4270;48.148;11.648;2024-01-15T09:41:14;9.40;;;4.20;;
8466;SDS011;4270;48.148;11.648;2024-01-15T09:43:40;8.20;;;4.43;;
8466;SDS011;4270;48.148;11.648;2024-01-15T09:46:05;10.20;;;4.60;;
8466;SDS011;4270;48.148;11.648;2024-01-15T09:48:30;9.90;;;4.90;;
8466;SDS011;4270;48.148;11.648;2024-01-15T09:51:02;5.63;;;3.90;;
8466;SDS011;4270;48.148;11.648;2024-01-15T09:53:27;7.50;;;4.07;;
8466;SDS011;4270;48.148;11.648;2024-01-15T09:55:53;7.83;;;4.37;;
8466;SDS011;4270;48.148;11.648;2024-01-15T09:58:18;8.10;;;3.73;;
8466;SDS011;4270;48.148;11.648;2024-01-15T10:00:44;13.13;;;4.73;;
8466;SDS011;4270;48.148;11.648;2024-01-15T10:03:09;5.80;;;3.57;;
8466;SDS011;4270;48.148;11.648;2024-01-15T10:05:36;8.57;;;4.70;;
8466;SDS011;4270;48.148;11.648;2024-01-15T10:08:02;7.63;;;4.20;;
8466;SDS011;4270;48.148;11.648;2024-01-15T10:10:28;8.90;;;3.83;;
8466;SDS011;4270;48.148;11.648;2024-01-15T10:12:53;8.17;;;3.70;;
8466;SDS011;4270;48.148;11.648;2024-01-15T10:15:22;6.40;;;3.83;;
8466;SDS011;4270;48.148;11.648;2024-01-15T10:17:48;8.90;;;3.80;;
8466;SDS011;4270;48.148;11.648;2024-01-15T10:20:13;10.97;;;4.27;;
8466;SDS011;4270;48.148;11.648;2024-01-15T10:22:40;5.93;;;3.80;;
8466;SDS011;4270;48.148;11.648;2024-01-15T10:25:05;6.27;;;3.43;;
8466;SDS011;4270;48.148;11.648;2024-01-15T10:27:30;7.37;;;3.60;;
8466;SDS011;4270;48.148;11.648;2024-01-15T10:29:59;8.60;;;3.97;;
8466;SDS011;4270;48.148;11.648;2024-01-15T10:32:24;6.03;;;3.70;;
8466;SDS011;4270;48.148;11.648;2024-01-15T10:34:50;8.47;;;4.30;;
8466;SDS011;4270;48.148;11.648;2024-01-15T10:37:17;8.73;;;3.50;;
8466;SDS011;4270;48.148;11.648;2024-01-15T10:39:42;5.67;;;2.80;;
8466;SDS011;4270;48.148;11.648;2024-01-15T10:42:07;8.53;;;3.43;;
8466;SDS011;4270;48.148;11.648;2024-01-15T10:44:33;6.67;;;3.60;;
8466;SDS011;4270;48.148;11.648;2024-01-15T10:46:59;6.50;;;3.50;;
8466;SDS011;4270;48.148;11.648;2024-01-15T10:49:24;6.57;;;3.33;;
8466;SDS011;4270;48.148;11.648;2024-01-15T10:51:52;6.90;;;4.47;;
8466;SDS011;4270;48.148;11.648;2024-01-15T10:54:17;6.43;;;3.00;;
8466;SDS011;4270;48.148;11.648;2024-01-15T10:56:44;7.87;;;3.50;;
8466;SDS011;4270;48.148;11.648;2024-01-15T10:59:10;7.03;;;3.13;;
8466;SDS011;4270;48.148;11.648;2024-01-15T11:01:36;7.43;;;3.57;;
8466;SDS011;4270;48.148;11.648;2024-01-15T11:04:02;5.40;;;3.50;;
8466;SDS011;4270;48.148;11.648;2024-01-15T11:06:27;6.10;;;3.70;;
8466;SDS011;4270;48.148;11.648;2024-01-15T11:08:54;7.70;;;3.83;;
8466;SDS011;4270;48.148;11.648;2024-01-15T11:11:20;7.47;;;4.07;;
8466;SDS011;4270;48.148;11.648;2024-01-15T11:13:49;8.77;;;3.70;;
8466;SDS011;4270;48.148;11.648;2024-01-15T11:16:16;10.17;;;5.07;;
8466;SDS011;4270;48.148;11.648;2024-01-15T11:18:43;6.73;;;3.60;;
8466;SDS011;4270;48.148;11.648;2024-01-15T11:23:43;10.57;;;5.10;;
8466;SDS011;4270;48.148;11.648;2024-01-15T11:28:58;8.10;;;3.90;;
8466;SDS011;4270;48.148;11.648;2024-01-15T11:33:53;8.70;;;5.90;;
8466;SDS011;4270;48.148;11.648;2024-01-15T11:36:18;7.50;;;3.67;;
8466;SDS011;4270;48.148;11.648;2024-01-15T11:38:43;5.17;;;2.87;;
8466;SDS011;4270;48.148;11.648;2024-01-15T11:41:15;7.77;;;3.70;;
8466;SDS011;4270;48.148;11.648;2024-01-15T11:43:41;5.40;;;3.30;;
8466;SDS011;4270;48.148;11.648;2024-01-15T11:46:07;5.43;;;3.33;;
8466;SDS011;4270;48.148;11.648;2024-01-15T11:48:41;5.50;;;3.27;;
8466;SDS011;4270;48.148;11.648;2024-01-15T11:51:07;6.33;;;3.30;;
8466;SDS011;4270;48.148;11.648;2024-01-15T11:53:36;7.50;;;3.07;;
8466;SDS011;4270;48.148;11.648;2024-01-15T11:56:02;8.23;;;3.47;;
8466;SDS011;4270;48.148;11.648;2024-01-15T11:58:28;6.53;;;3.63;;
8466;SDS011;4270;48.148;11.648;2024-01-15T12:00:53;5.13;;;2.80;;
8466;SDS011;4270;48.148;11.648;2024-01-15T12:03:23;7.37;;;3.73;;
8466;SDS011;4270;48.148;11.648;2024-01-15T12:05:48;5.37;;;2.80;;
8466;SDS011;4270;48.148;11.648;2024-01-15T12:08:14;7.33;;;2.70;;
8466;SDS011;4270;48.148;11.648;2024-01-15T12:10:39;5.30;;;2.83;;
8466;SDS011;4270;48.148;11.648;2024-01-15T12:15:31;5.27;;;3.17;;
8466;SDS011;4270;48.148;11.648;2024-01-15T12:18:00;4.50;;;2.90;;
8466;SDS011;4270;48.148;11.648;2024-01-15T12:20:27;4.83;;;2.77;;
8466;SDS011;4270;48.148;11.648;2024-01-15T12:22:53;5.43;;;2.70;;
8466;SDS011;4270;48.148;11.648;2024-01-15T12:25:20;5.07;;;2.80;;
8466;SDS011;4270;48.148;11.648;2024-01-15T12:27:45;4.20;;;2.67;;
8466;SDS011;4270;48.148;11.648;2024-01-15T12:30:11;5.57;;;2.87;;
8466;SDS011;4270;48.148;11.648;2024-01-15T12:32:37;7.00;;;3.03;;
8466;SDS011;4270;48.148;11.648;2024-01-15T12:35:02;3.93;;;2.20;;
8466;SDS011;4270;48.148;11.648;2024-01-15T12:37:27;5.60;;;2.50;;
8466;SDS011;4270;48.148;11.648;2024-01-15T12:39:54;3.60;;;2.17;;
8466;SDS011;4270;48.148;11.648;2024-01-15T12:42:20;5.80;;;2.93;;
8466;SDS011;4270;48.148;11.648;2024-01-15T12:44:46;5.67;;;2.37;;
8466;SDS011;4270;48.148;11.648;2024-01-15T12:47:11;5.40;;;3.00;;
8466;SDS011;4270;48.148;11.648;2024-01-15T12:49:37;5.43;;;2.80;;
8466;SDS011;4270;48.148;11.648;2024-01-15T12:52:03;3.70;;;2.60;;
8466;SDS011;4270;48.148;11.648;2024-01-15T12:54:28;3.97;;;2.43;;
8466;SDS011;4270;48.148;11.648;2024-01-15T12:56:53;5.83;;;2.60;;
8466;SDS011;4270;48.148;11.648;2024-01-15T12:59:19;5.13;;;3.23;;
8466;SDS011;4270;48.148;11.648;2024-01-15T13:01:44;4.90;;;2.60;;
8466;SDS011;4270;48.148;11.648;2024-01-15T13:04:10;5.33;;;2.97;;
8466;SDS011;4270;48.148;11.648;2024-01-15T13:06:35;3.90;;;2.50;;
8466;SDS011;4270;48.148;11.648;2024-01-15T13:09:01;6.03;;;5.53;;
8466;SDS011;4270;48.148;11.648;2024-01-15T13:11:28;3.43;;;2.40;;
8466;SDS011;4270;48.148;11.648;2024-01-15T13:13:53;13.73;;;2.80;;
8466;SDS011;4270;48.148;11.648;2024-01-15T13:16:18;4.80;;;2.57;;
8466;SDS011;4270;48.148;11.648;2024-01-15T13:18:45;6.03;;;2.73;;
8466;SDS011;4270;48.148;11.648;2024-01-15T13:21:11;3.43;;;1.90;;
8466;SDS011;4270;48.148;11.648;2024-01-15T13:23:37;3.90;;;2.73;;
8466;SDS011;4270;48.148;11.648;2024-01-15T13:26:03;4.37;;;2.40;;
8466;SDS011;4270;48.148;11.648;2024-01-15T13:28:28;8.83;;;3.30;;
8466;SDS011;4270;48.148;11.648;2024-01-15T13:30:53;4.73;;;2.57;;
8466;SDS011;4270;48.148;11.648;2024-01-15T13:33:18;6.40;;;2.70;;
8466;SDS011;4270;48.148;11.648;2024-01-15T13:35:44;4.23;;;2.80;;
8466;SDS011;4270;48.148;11.648;2024-01-15T13:38:09;4.83;;;2.53;;
8466;SDS011;4270;48.148;11.648;2024-01-15T13:40:34;5.57;;;2.87;;
8466;SDS011;4270;48.148;11.648;2024-01-15T13:42:59;5.40;;;2.40;;
8466;SDS011;4270;48.148;11.648;2024-01-15T13:45:24;5.63;;;3.53;;
8466;SDS011;4270;48.148;11.648;2024-01-15T13:47:50;4.70;;;2.67;;
8466;SDS011;4270;48.148;11.648;2024-01-15T13:50:15;6.10;;;3.00;;
8466;SDS011;4270;48.148;11.648;2024-01-15T13:52:40;4.70;;;2.80;;
8466;SDS011;4270;48.148;11.648;2024-01-15T13:55:05;8.33;;;3.00;;
8466;SDS011;4270;48.148;11.648;2024-01-15T13:57:33;6.50;;;3.20;;
8466;SDS011;4270;48.148;11.648;2024-01-15T14:00:02;6.43;;;3.10;;
8466;SDS011;4270;48.148;11.648;2024-01-15T14:02:27;6.53;;;2.77;;
8466;SDS011;4270;48.148;11.648;2024-01-15T14:04:52;5.53;;;3.17;;
8466;SDS011;4270;48.148;11.648;2024-01-15T14:07:19;5.17;;;3.40;;
8466;SDS011;4270;48.148;11.648;2024-01-15T14:09:44;7.97;;;3.53;;
8466;SDS011;4270;48.148;11.648;2024-01-15T14:12:09;7.60;;;3.50;;
8466;SDS011;4270;48.148;11.648;2024-01-15T14:14:34;7.63;;;3.30;;
8466;SDS011;4270;48.148;11.648;2024-01-15T14:17:00;6.37;;;3.50;;
8466;SDS011;4270;48.148;11.648;2024-01-15T14:19:25;9.13;;;3.73;;
8466;SDS011;4270;48.148;11.648;2024-01-15T14:21:50;7.60;;;3.37;;
8466;SDS011;4270;48.148;11.648;2024-01-15T14:24:15;6.83;;;3.43;;
8466;SDS011;4270;48.148;11.648;2024-01-15T14:26:42;6.57;;;3.60;;
8466;SDS011;4270;48.148;11.648;2024-01-15T14:29:07;7.90;;;3.50;;
8466;SDS011;4270;48.148;11.648;2024-01-15T14:31:32;4.83;;;3.13;;
8466;SDS011;4270;48.148;11.648;2024-01-15T14:33:59;5.00;;;3.47;;
8466;SDS011;4270;48.148;11.648;2024-01-15T14:36:24;5.80;;;3.80;;
8466;SDS011;4270;48.148;11.648;2024-01-15T14:38:49;6.13;;;3.00;;
8466;SDS011;4270;48.148;11.648;2024-01-15T14:41:15;7.83;;;3.83;;
8466;SDS011;4270;48.148;11.648;2024-01-15T14:43:41;4.47;;;2.80;;
8466;SDS011;4270;48.148;11.648;2024-01-15T14:46:07;6.10;;;3.23;;
8466;SDS011;4270;48.148;11.648;2024-01-15T14:48:32;6.50;;;3.20;;
8466;SDS011;4270;48.148;11.648;2024-01-15T14:50:57;5.37;;;2.87;;
8466;SDS011;4270;48.148;11.648;2024-01-15T14:53:22;7.10;;;3.50;;
8466;SDS011;4270;48.148;11.648;2024-01-15T14:55:48;5.67;;;2.63;;
8466;SDS011;4270;48.148;11.648;2024-01-15T14:58:13;6.37;;;3.70;;